Archiv-/Tagesdaten

--Timestamp---	Temp	Chill	HIndex	Humid	Dewpt	Wind	HiWind	WindDir	Rain	Barom	        Solar	ET	UV
--------------	----	-----	------	-----	-----	----	------	-------	----	-----	        -----	--	--
20080826 00:05	14.6	14.6	14.6	88	12.6	0	0	157	0.00	1020.186	0	0.000	0
20080826 00:10	14.5	14.5	14.5	88	12.5	0	2	157	0.00	1020.220	0	0.000	0
20080826 00:15	14.5	14.5	14.5	88	12.5	2	5	157	0.00	1020.220	0	0.000	0
20080826 00:20	14.4	14.4	14.4	88	12.5	0	3	157	0.00	1020.288	0	0.000	0
20080826 00:25	14.4	14.4	14.4	88	12.5	2	3	157	0.00	1020.322	0	0.000	0
20080826 00:30	14.4	14.4	14.4	88	12.5	0	5	157	0.00	1020.254	0	0.000	0
20080826 00:35	14.4	14.4	14.4	88	12.4	2	8	157	0.00	1020.288	0	0.000	0
20080826 00:40	14.3	14.3	14.3	88	12.4	3	8	157	0.00	1020.322	0	0.000	0
20080826 00:45	14.3	14.3	14.3	88	12.4	2	6	180	0.00	1020.322	0	0.000	0
20080826 00:50	14.2	14.2	14.2	88	12.3	2	8	180	0.00	1020.390	0	0.000	0
20080826 00:55	14.2	14.2	14.2	89	12.4	2	5	180	0.00	1020.390	0	0.000	0
20080826 01:00	14.1	14.1	14.1	89	12.3	2	6	180	0.00	1020.457	0	0.000	0
20080826 01:05	14.0	14.0	14.0	89	12.2	2	6	180	0.00	1020.390	0	0.000	0
20080826 01:10	13.9	13.9	13.9	89	12.2	2	6	180	0.00	1020.390	0	0.000	0
20080826 01:15	13.9	13.9	13.9	89	12.1	0	5	180	0.00	1020.390	0	0.000	0
20080826 01:20	13.8	13.8	13.8	89	12.0	0	3	180	0.00	1020.491	0	0.000	0
20080826 01:25	13.8	13.8	13.8	89	12.0	0	2	180	0.00	1020.559	0	0.000	0
20080826 01:30	13.7	13.7	13.7	89	11.9	0	2	180	0.00	1020.525	0	0.000	0
20080826 01:35	13.7	13.7	13.7	89	11.9	2	5	180	0.00	1020.559	0	0.000	0
20080826 01:40	13.7	13.7	13.7	89	11.9	0	3	180	0.00	1020.559	0	0.000	0
20080826 01:45	13.7	13.7	13.7	89	11.9	0	2	180	0.00	1020.525	0	0.000	0
20080826 01:50	13.6	13.6	13.6	89	11.8	0	2	180	0.00	1020.559	0	0.000	0
20080826 01:55	13.5	13.5	13.5	89	11.7	0	3	180	0.00	1020.525	0	0.000	0
20080826 02:00	13.4	13.4	13.4	90	11.8	0	2	180	0.00	1020.525	0	0.000	0
20080826 02:05	13.4	13.4	13.4	89	11.6	0	2	180	0.00	1020.288	0	0.000	0
20080826 02:10	13.3	13.3	13.3	89	11.6	0	2	180	0.00	1020.322	0	0.000	0
20080826 02:15	13.3	13.3	13.3	90	11.7	0	0	180	0.00	1020.322	0	0.000	0
20080826 02:20	13.3	13.3	13.3	90	11.7	0	2	180	0.00	1020.356	0	0.000	0
20080826 02:25	13.3	13.3	13.3	90	11.7	0	2	180	0.00	1020.356	0	0.000	0
20080826 02:30	13.3	13.3	13.3	90	11.7	0	2	180	0.00	1020.322	0	0.000	0
20080826 02:35	13.4	13.4	13.4	90	11.8	0	3	180	0.00	1020.390	0	0.000	0
20080826 02:40	13.4	13.4	13.4	90	11.8	0	2	180	0.00	1020.423	0	0.000	0
20080826 02:45	13.4	13.4	13.4	90	11.8	0	3	180	0.00	1020.390	0	0.000	0
20080826 02:50	13.4	13.4	13.4	90	11.8	0	3	180	0.00	1020.390	0	0.000	0
20080826 02:55	13.4	13.4	13.4	89	11.6	0	5	180	0.00	1020.390	0	0.000	0
20080826 03:00	13.3	13.3	13.3	89	11.6	0	3	180	0.00	1020.423	0	0.000	0
20080826 03:05	13.3	13.3	13.3	89	11.5	2	6	180	0.00	1020.356	0	0.000	0
20080826 03:10	13.2	13.2	13.2	89	11.4	0	2	180	0.00	1020.356	0	0.000	0
20080826 03:15	13.2	13.2	13.2	90	11.6	0	2	180	0.00	1020.390	0	0.000	0
20080826 03:20	13.1	13.1	13.1	90	11.5	0	2	180	0.00	1020.322	0	0.000	0
20080826 03:25	13.1	13.1	13.1	90	11.5	0	5	180	0.00	1020.423	0	0.000	0
20080826 03:30	13.0	13.0	13.0	89	11.2	0	5	180	0.00	1020.525	0	0.000	0
20080826 03:35	12.9	12.9	12.9	89	11.2	0	5	180	0.00	1020.559	0	0.000	0
20080826 03:40	12.9	12.9	12.9	90	11.3	2	5	180	0.00	1020.627	0	0.000	0
20080826 03:45	12.8	12.8	12.8	90	11.2	3	5	180	0.00	1020.593	0	0.000	0
20080826 03:50	12.8	12.8	12.8	90	11.2	2	6	180	0.00	1020.525	0	0.000	0
20080826 03:55	12.8	12.8	12.8	90	11.2	3	8	180	0.00	1020.525	0	0.000	0
20080826 04:00	12.8	12.8	12.8	90	11.2	3	10	202	0.00	1020.559	0	0.000	0
20080826 04:05	12.8	12.8	12.8	89	11.0	3	10	202	0.00	1020.559	0	0.000	0
20080826 04:10	12.7	12.7	12.7	89	11.0	3	6	202	0.00	1020.627	0	0.000	0
20080826 04:15	12.7	12.7	12.7	89	10.9	5	11	202	0.00	1020.762	0	0.000	0
20080826 04:20	12.7	12.7	12.7	89	10.9	5	11	202	0.00	1020.694	0	0.000	0
20080826 04:25	12.6	12.6	12.6	89	10.8	5	10	202	0.00	1020.627	0	0.000	0
20080826 04:30	12.7	12.7	12.7	89	10.9	3	11	202	0.00	1020.627	0	0.000	0
20080826 04:35	12.6	12.6	12.6	89	10.8	0	5	202	0.00	1020.694	0	0.000	0
20080826 04:40	12.7	12.7	12.7	89	10.9	0	3	202	0.00	1020.762	0	0.000	0
20080826 04:45	12.7	12.7	12.7	89	10.9	0	6	202	0.00	1020.830	0	0.000	0
20080826 04:50	12.8	12.8	12.8	89	11.0	0	6	202	0.00	1020.864	0	0.000	0
20080826 04:55	12.8	12.8	12.8	89	11.1	2	8	202	0.00	1020.931	0	0.000	0
20080826 05:00	12.9	12.9	12.9	89	11.1	3	8	202	0.00	1020.965	0	0.000	0
20080826 05:05	12.9	12.9	12.9	89	11.1	2	5	202	0.00	1020.864	0	0.000	0
20080826 05:10	12.9	12.9	12.9	89	11.2	0	5	202	0.00	1020.897	0	0.000	0
20080826 05:15	13.0	13.0	13.0	89	11.2	0	2	202	0.00	1020.796	0	0.000	0
20080826 05:20	13.0	13.0	13.0	89	11.2	0	0	202	0.00	1020.864	0	0.000	0
20080826 05:25	13.1	13.1	13.1	89	11.3	0	0	202	0.00	1020.897	0	0.000	0
20080826 05:30	13.1	13.1	13.1	89	11.3	0	0	202	0.00	1020.897	0	0.000	0
20080826 05:35	13.1	13.1	13.1	89	11.3	0	2	202	0.00	1020.864	0	0.000	0
20080826 05:40	13.2	13.2	13.2	89	11.4	0	2	202	0.00	1020.830	0	0.000	0
20080826 05:45	13.2	13.2	13.2	89	11.4	0	2	202	0.00	1020.830	0	0.000	0
20080826 05:50	13.2	13.2	13.2	89	11.4	0	0	202	0.00	1020.830	0	0.000	0
20080826 05:55	13.2	13.2	13.2	89	11.4	0	2	202	0.00	1020.830	0	0.000	0
20080826 06:00	13.2	13.2	13.2	89	11.4	0	3	202	0.00	1020.830	0	0.000	0
20080826 06:05	13.3	13.3	13.3	89	11.5	0	2	202	0.00	1020.864	0	0.000	0
20080826 06:10	13.3	13.3	13.3	89	11.6	0	3	202	0.00	1020.931	0	0.000	0
20080826 06:15	13.4	13.4	13.4	89	11.6	0	3	202	0.00	1021.101	0	0.000	0
20080826 06:20	13.4	13.4	13.4	89	11.6	0	3	202	0.00	1021.134	0	0.000	0
20080826 06:25	13.3	13.3	13.3	89	11.6	2	3	202	0.00	1021.202	0	0.000	0
20080826 06:30	13.3	13.3	13.3	89	11.6	0	2	202	0.00	1021.168	0	0.000	0
20080826 06:35	13.3	13.3	13.3	89	11.6	0	3	202	0.00	1021.168	0	0.000	0
20080826 06:40	13.3	13.3	13.3	89	11.6	0	0	202	0.00	1021.202	3	0.000	0
20080826 06:45	13.3	13.3	13.3	89	11.6	0	2	202	0.00	1021.134	6	0.000	0
20080826 06:50	13.4	13.4	13.4	89	11.6	0	3	202	0.00	1021.270	7	0.000	0
20080826 06:55	13.4	13.4	13.4	90	11.8	0	3	202	0.00	1021.236	9	0.000	0
20080826 07:00	13.4	13.4	13.4	89	11.7	0	3	202	0.00	1021.338	11	0.000	0
20080826 07:05	13.5	13.5	13.5	90	11.9	0	3	202	0.00	1021.338	12	0.000	0
20080826 07:10	13.6	13.6	13.6	89	11.8	0	3	202	0.00	1021.405	16	0.000	0
20080826 07:15	13.6	13.6	13.6	89	11.8	0	2	202	0.00	1021.372	21	0.000	0
20080826 07:20	13.7	13.7	13.7	89	11.9	0	2	202	0.00	1021.439	26	0.000	0
20080826 07:25	13.8	13.8	13.8	89	12.0	0	2	202	0.00	1021.507	29	0.000	0
20080826 07:30	13.8	13.8	13.8	89	12.0	0	0	202	0.00	1021.575	33	0.000	0
20080826 07:35	13.9	13.9	13.9	89	12.1	0	0	202	0.00	1021.541	35	0.000	0
20080826 07:40	13.9	13.9	13.9	89	12.2	0	3	202	0.00	1021.541	44	0.000	0
20080826 07:45	14.1	14.1	14.1	89	12.3	0	2	202	0.00	1021.575	52	0.000	0
20080826 07:50	14.2	14.2	14.2	88	12.2	0	2	202	0.00	1021.541	50	0.000	0
20080826 07:55	14.3	14.3	14.3	88	12.3	0	0	202	0.00	1021.575	49	0.000	0
20080826 08:00	14.3	14.3	14.3	89	12.5	0	2	202	0.00	1021.778	49	0.020	0
20080826 08:05	14.4	14.4	14.4	88	12.5	0	3	202	0.00	1021.880	49	0.000	0
20080826 08:10	14.5	14.5	14.5	88	12.5	0	2	202	0.00	1021.880	59	0.000	0
20080826 08:15	14.6	14.6	14.6	88	12.6	2	5	202	0.00	1021.913	65	0.000	0
20080826 08:20	14.7	14.7	14.7	88	12.7	2	5	202	0.00	1021.981	68	0.000	0
20080826 08:25	14.8	14.8	14.8	88	12.8	0	2	202	0.00	1022.117	81	0.000	0
20080826 08:30	14.9	14.9	14.9	88	13.0	0	0	202	0.00	1022.117	92	0.000	0
20080826 08:35	15.0	15.0	15.0	87	12.9	0	2	202	0.00	1022.117	112	0.000	1
20080826 08:40	15.0	15.0	15.0	87	12.9	0	2	202	0.00	1022.150	128	0.000	1
20080826 08:45	15.3	15.3	15.3	87	13.1	0	2	202	0.00	1022.150	134	0.000	1
20080826 08:50	15.4	15.4	15.4	87	13.2	2	5	202	0.00	1022.049	138	0.000	1
20080826 08:55	15.6	15.6	15.6	85	13.0	2	5	202	0.00	1022.015	153	0.000	1
20080826 09:00	15.7	15.7	15.7	85	13.2	0	3	202	0.00	1021.947	177	0.040	1
20080826 09:05	15.9	15.9	15.9	84	13.2	2	5	202	0.00	1022.083	220	0.000	1
20080826 09:10	16.2	16.2	16.2	84	13.5	0	2	202	0.00	1022.117	217	0.000	1
20080826 09:15	16.3	16.3	16.3	83	13.4	2	5	202	0.00	1022.117	196	0.000	1
20080826 09:20	16.5	16.5	16.5	83	13.6	2	5	202	0.00	1022.117	186	0.000	1
20080826 09:25	16.6	16.6	16.6	83	13.7	2	6	202	0.00	1022.083	176	0.000	1
20080826 09:30	16.7	16.7	16.7	81	13.4	2	5	270	0.00	1022.150	171	0.000	1
20080826 09:35	16.8	16.8	16.8	81	13.5	2	6	292	0.00	1022.252	207	0.000	2
20080826 09:40	16.9	16.9	16.9	82	13.8	2	6	270	0.00	1022.286	247	0.000	2
20080826 09:45	16.9	16.9	16.9	81	13.7	5	8	292	0.00	1022.117	257	0.000	2
20080826 09:50	17.0	17.0	17.0	82	13.9	2	8	292	0.00	1022.150	253	0.000	2
20080826 09:55	17.1	17.1	17.1	81	13.8	2	5	270	0.00	1022.184	234	0.000	2
20080826 10:00	17.3	17.3	17.3	80	13.8	2	6	270	0.00	1022.184	223	0.100	2
20080826 10:05	17.4	17.4	17.4	80	14.0	2	6	292	0.00	1022.354	186	0.000	2
20080826 10:10	17.6	17.6	17.6	79	13.9	2	5	270	0.00	1022.421	159	0.000	2
20080826 10:15	17.6	17.6	17.6	79	13.9	2	6	270	0.00	1022.489	149	0.000	2
20080826 10:20	17.6	17.6	17.6	77	13.5	2	5	270	0.00	1022.489	157	0.000	2
20080826 10:25	17.7	17.7	17.7	76	13.4	2	5	270	0.00	1022.523	152	0.000	2
20080826 10:30	17.8	17.8	17.8	76	13.5	2	6	292	0.00	1022.523	152	0.000	3
20080826 10:35	17.9	17.9	17.9	76	13.6	2	5	292	0.00	1022.523	154	0.000	3
20080826 10:40	18.1	18.1	18.1	75	13.6	2	6	22	0.00	1022.455	157	0.000	3
20080826 10:45	18.2	18.2	18.2	73	13.3	2	5	22	0.00	1022.421	168	0.000	3
20080826 10:50	18.3	18.3	18.3	73	13.4	2	5	337	0.00	1022.455	509	0.000	4
20080826 10:55	18.4	18.4	18.4	70	12.8	0	2	337	0.00	1022.523	572	0.000	4
20080826 11:00	18.6	18.6	18.6	72	13.4	2	6	0	0.00	1022.455	559	0.120	4
20080826 11:05	18.8	18.8	18.8	72	13.7	2	5	292	0.00	1022.455	596	0.000	4
20080826 11:10	19.2	19.2	19.2	69	13.4	0	3	292	0.00	1022.455	642	0.000	4
20080826 11:15	19.6	19.6	19.6	68	13.5	2	3	292	0.00	1022.354	665	0.000	5
20080826 11:20	19.9	19.9	19.9	70	14.2	0	3	292	0.00	1022.184	688	0.000	5
20080826 11:25	19.9	19.9	19.9	70	14.2	3	8	292	0.00	1022.184	644	0.000	5
20080826 11:30	19.9	19.9	19.9	68	13.9	2	8	247	0.00	1022.150	647	0.000	5
20080826 11:35	19.9	19.9	19.9	69	14.1	2	8	292	0.00	1022.218	629	0.000	5
20080826 11:40	20.2	20.2	20.2	67	13.9	0	2	292	0.00	1022.184	623	0.000	5
20080826 11:45	20.3	20.3	20.3	67	14.0	2	6	292	0.00	1022.150	556	0.000	5
20080826 11:50	20.4	20.4	20.4	66	13.9	3	10	270	0.00	1022.184	617	0.000	5
20080826 11:55	20.6	20.6	20.6	66	14.0	0	5	270	0.00	1022.184	610	0.000	5
20080826 12:00	20.6	20.6	20.6	69	14.7	3	8	292	0.00	1022.184	629	0.280	6
20080826 12:05	20.8	20.8	20.8	65	14.0	0	5	315	0.00	1022.150	659	0.000	6
20080826 12:10	20.8	20.8	20.8	66	14.2	2	6	292	0.00	1022.117	699	0.000	6
20080826 12:15	21.0	21.0	21.0	65	14.2	2	14	315	0.00	1022.083	683	0.000	6
20080826 12:20	21.1	21.1	21.1	64	14.0	5	16	270	0.00	1022.117	663	0.000	6
20080826 12:25	20.9	20.9	20.9	62	13.3	3	10	315	0.00	1022.117	692	0.000	6
20080826 12:30	21.0	21.0	21.0	64	13.9	2	6	292	0.00	1022.083	642	0.000	6
20080826 12:35	21.2	21.2	21.2	63	13.8	2	6	292	0.00	1022.049	707	0.000	6
20080826 12:40	21.4	21.4	21.4	64	14.3	2	5	270	0.00	1021.913	717	0.000	6
20080826 12:45	21.4	21.4	21.4	61	13.6	2	8	0	0.00	1021.880	732	0.000	7
20080826 12:50	21.3	21.3	21.3	62	13.7	2	8	22	0.00	1021.981	736	0.000	7
20080826 12:55	21.1	21.1	21.1	64	14.0	2	8	22	0.00	1021.981	727	0.000	7
20080826 13:00	21.2	21.2	21.2	65	14.4	3	10	22	0.00	1021.947	753	0.340	7
20080826 13:05	21.4	21.4	21.4	64	14.3	3	11	292	0.00	1022.015	748	0.000	7
20080826 13:10	21.6	21.6	21.6	64	14.4	5	14	270	0.00	1022.015	675	0.000	6
20080826 13:15	21.8	21.8	21.8	64	14.7	2	6	270	0.00	1022.083	750	0.000	7
20080826 13:20	21.7	21.7	21.7	63	14.4	5	10	22	0.00	1022.083	752	0.000	7
20080826 13:25	21.6	21.6	21.6	64	14.5	3	8	292	0.00	1022.117	762	0.000	7
20080826 13:30	21.7	21.7	21.7	63	14.4	5	11	270	0.00	1022.184	451	0.000	6
20080826 13:35	21.8	21.8	21.8	61	14.0	2	8	292	0.00	1022.117	765	0.000	7
20080826 13:40	21.9	21.9	21.9	62	14.3	3	8	22	0.00	1022.150	763	0.000	7
20080826 13:45	22.3	22.3	22.3	63	14.9	3	8	292	0.00	1022.117	765	0.000	6
20080826 13:50	22.4	22.4	22.4	59	14.0	3	6	292	0.00	1022.117	759	0.000	7
20080826 13:55	22.1	22.1	22.1	61	14.2	3	8	22	0.00	1022.049	727	0.000	7
20080826 14:00	21.8	21.8	21.8	60	13.7	3	8	22	0.00	1022.150	587	0.340	6
20080826 14:05	21.7	21.7	21.7	63	14.3	2	6	22	0.00	1022.184	751	0.000	7
20080826 14:10	21.9	21.9	21.9	60	13.8	2	6	22	0.00	1022.083	744	0.000	7
20080826 14:15	22.2	22.2	22.2	61	14.3	3	8	22	0.00	1021.981	752	0.000	6
20080826 14:20	22.6	22.6	22.6	61	14.6	3	10	292	0.00	1021.812	758	0.000	6
20080826 14:25	22.7	22.7	22.7	60	14.5	5	10	292	0.00	1021.846	765	0.000	6
20080826 14:30	22.8	22.8	22.8	59	14.4	2	8	292	0.00	1021.778	736	0.000	6
20080826 14:35	22.9	22.9	22.9	57	13.9	3	8	22	0.00	1021.710	722	0.000	6
20080826 14:40	23.2	23.2	23.2	56	13.9	2	10	270	0.00	1021.609	669	0.000	6
20080826 14:45	23.3	23.3	23.3	57	14.3	2	6	270	0.00	1021.541	635	0.000	5
20080826 14:50	23.5	23.5	23.5	58	14.7	2	10	292	0.00	1021.541	646	0.000	5
20080826 14:55	23.6	23.6	23.6	58	14.8	2	8	247	0.00	1021.507	653	0.000	5
20080826 15:00	23.4	23.4	23.4	56	14.2	5	11	292	0.00	1021.507	665	0.340	5
20080826 15:05	23.3	23.3	23.3	56	14.1	2	8	292	0.00	1021.609	694	0.000	5
20080826 15:10	23.2	23.2	23.2	56	13.9	3	8	22	0.00	1021.609	642	0.000	5
20080826 15:15	23.2	23.2	23.2	56	13.9	2	5	292	0.00	1021.575	642	0.000	5
20080826 15:20	23.3	23.3	23.3	60	15.1	2	8	292	0.00	1021.609	630	0.000	5
20080826 15:25	23.3	23.3	23.3	56	14.1	5	16	292	0.00	1021.609	622	0.000	5
20080826 15:30	23.4	23.4	23.4	56	14.2	3	11	292	0.00	1021.439	616	0.000	5
20080826 15:35	23.4	23.4	23.4	55	13.9	3	11	292	0.00	1021.507	598	0.000	4
20080826 15:40	23.5	23.5	23.5	54	13.6	5	11	292	0.00	1021.575	625	0.000	4
20080826 15:45	23.5	23.5	23.5	53	13.4	3	10	292	0.00	1021.541	620	0.000	4
20080826 15:50	23.7	23.7	23.7	52	13.2	2	5	292	0.00	1021.439	602	0.000	4
20080826 15:55	23.9	23.9	25.3	53	13.7	2	10	292	0.00	1021.405	616	0.000	4
20080826 16:00	24.0	24.0	25.4	55	14.4	2	5	337	0.00	1021.372	614	0.320	4
20080826 16:05	23.5	23.5	23.5	55	13.9	8	11	45	0.00	1021.473	621	0.000	4
20080826 16:10	23.2	23.2	23.2	57	14.2	5	10	45	0.00	1021.507	613	0.000	4
20080826 16:15	23.3	23.3	23.3	56	14.0	3	10	22	0.00	1021.507	571	0.000	3
20080826 16:20	23.4	23.4	23.4	56	14.1	2	8	22	0.00	1021.507	539	0.000	3
20080826 16:25	23.4	23.4	23.4	54	13.5	3	10	292	0.00	1021.473	510	0.000	3
20080826 16:30	23.4	23.4	23.4	55	13.9	3	8	292	0.00	1021.507	496	0.000	3
20080826 16:35	23.5	23.5	23.5	53	13.4	2	6	292	0.00	1021.609	469	0.000	3
20080826 16:40	23.5	23.5	23.5	54	13.6	3	8	292	0.00	1021.507	473	0.000	3
20080826 16:45	23.4	23.4	23.4	55	13.8	5	11	22	0.00	1021.507	467	0.000	2
20080826 16:50	23.4	23.4	23.4	55	13.8	2	5	337	0.00	1021.507	464	0.000	2
20080826 16:55	23.4	23.4	23.4	54	13.5	2	5	315	0.00	1021.473	240	0.000	2
20080826 17:00	23.4	23.4	23.4	56	14.2	3	8	0	0.00	1021.473	197	0.240	2
20080826 17:05	23.3	23.3	23.3	56	14.0	3	10	22	0.00	1021.304	187	0.000	2
20080826 17:10	23.1	23.1	23.1	56	13.8	3	6	22	0.00	1021.270	187	0.000	2
20080826 17:15	22.8	22.8	22.8	57	13.8	3	6	67	0.00	1021.439	207	0.000	2
20080826 17:20	22.8	22.8	22.8	57	13.8	2	10	0	0.00	1021.372	175	0.000	1
20080826 17:25	22.7	22.7	22.7	55	13.2	0	2	0	0.00	1021.338	150	0.000	1
20080826 17:30	22.8	22.8	22.8	55	13.3	2	5	0	0.00	1021.338	145	0.000	1
20080826 17:35	22.7	22.7	22.7	56	13.5	3	8	0	0.00	1021.405	165	0.000	1
20080826 17:40	22.6	22.6	22.6	58	13.9	2	6	0	0.00	1021.372	142	0.000	1
20080826 17:45	22.4	22.4	22.4	56	13.2	2	5	0	0.00	1021.439	175	0.000	1
20080826 17:50	22.4	22.4	22.4	56	13.2	2	3	0	0.00	1021.372	187	0.000	1
20080826 17:55	22.4	22.4	22.4	56	13.2	0	2	292	0.00	1021.439	177	0.000	1
20080826 18:00	22.5	22.5	22.5	57	13.5	2	6	0	0.00	1021.405	206	0.100	1
20080826 18:05	22.4	22.4	22.4	56	13.2	3	6	22	0.00	1021.439	203	0.000	1
20080826 18:10	22.3	22.3	22.3	56	13.1	2	5	22	0.00	1021.372	190	0.000	1
20080826 18:15	22.2	22.2	22.2	56	13.0	3	6	45	0.00	1021.439	170	0.000	1
20080826 18:20	22.1	22.1	22.1	57	13.2	2	6	45	0.00	1021.372	125	0.000	1
20080826 18:25	22.1	22.1	22.1	57	13.1	0	2	45	0.00	1021.405	130	0.000	0
20080826 18:30	22.0	22.0	22.0	58	13.3	0	2	45	0.00	1021.372	123	0.000	0
20080826 18:35	21.9	21.9	21.9	58	13.3	2	5	45	0.00	1021.338	114	0.000	0
20080826 18:40	21.8	21.8	21.8	59	13.4	3	8	22	0.00	1021.439	102	0.000	0
20080826 18:45	21.7	21.7	21.7	59	13.3	3	6	22	0.00	1021.473	102	0.000	0
20080826 18:50	21.6	21.6	21.6	59	13.2	2	5	22	0.00	1021.473	70	0.000	0
20080826 18:55	21.4	21.4	21.4	58	12.8	2	5	22	0.00	1021.473	47	0.000	0
20080826 19:00	21.4	21.4	21.4	59	13.0	0	3	22	0.00	1021.473	42	0.080	0
20080826 19:05	21.3	21.3	21.3	60	13.2	0	3	22	0.00	1021.338	38	0.000	0
20080826 19:10	21.3	21.3	21.3	60	13.2	0	2	22	0.00	1021.405	34	0.000	0
20080826 19:15	21.2	21.2	21.2	61	13.3	0	2	22	0.00	1021.405	31	0.000	0
20080826 19:20	21.1	21.1	21.1	61	13.3	0	2	22	0.00	1021.372	27	0.000	0
20080826 19:25	21.0	21.0	21.0	62	13.4	0	0	22	0.00	1021.473	25	0.000	0
20080826 19:30	20.8	20.8	20.8	63	13.5	0	0	22	0.00	1021.372	21	0.000	0
20080826 19:35	20.7	20.7	20.7	64	13.7	0	0	22	0.00	1021.507	18	0.000	0
20080826 19:40	20.6	20.6	20.6	64	13.5	0	0	22	0.00	1021.507	16	0.000	0
20080826 19:45	20.4	20.4	20.4	64	13.4	0	0	22	0.00	1021.507	13	0.000	0
20080826 19:50	20.3	20.3	20.3	65	13.5	0	0	22	0.00	1021.507	10	0.000	0
20080826 19:55	20.1	20.1	20.1	67	13.8	0	0	22	0.00	1021.507	8	0.000	0
20080826 20:00	19.9	19.9	19.9	69	14.0	0	0	22	0.00	1021.473	6	0.020	0
20080826 20:05	19.7	19.7	19.7	71	14.3	0	0	22	0.00	1021.405	1	0.000	0
20080826 20:10	19.4	19.4	19.4	70	13.8	0	0	22	0.00	1021.473	0	0.000	0
20080826 20:15	19.2	19.2	19.2	71	13.8	0	0	22	0.00	1021.473	0	0.000	0
20080826 20:20	19.1	19.1	19.1	72	13.9	0	0	22	0.00	1021.541	0	0.000	0
20080826 20:25	18.9	18.9	18.9	73	13.9	0	0	22	0.00	1021.575	0	0.000	0
20080826 20:30	18.7	18.7	18.7	75	14.2	0	0	22	0.00	1021.643	0	0.000	0
20080826 20:35	18.6	18.6	18.6	76	14.2	0	0	22	0.00	1021.710	0	0.000	0
20080826 20:40	18.4	18.4	18.4	75	13.9	0	0	22	0.00	1021.880	0	0.000	0
20080826 20:45	18.2	18.2	18.2	76	13.9	0	0	22	0.00	1021.913	0	0.000	0
20080826 20:50	18.0	18.0	18.0	76	13.7	0	0	22	0.00	1021.947	0	0.000	0
20080826 20:55	17.8	17.8	17.8	77	13.7	0	0	22	0.00	1021.947	0	0.000	0
20080826 21:00	17.7	17.7	17.7	77	13.6	0	0	22	0.00	1021.947	0	0.000	0
20080826 21:05	17.6	17.6	17.6	77	13.5	0	0	22	0.00	1021.913	0	0.000	0
20080826 21:10	17.5	17.5	17.5	78	13.6	0	0	22	0.00	1021.913	0	0.000	0
20080826 21:15	17.4	17.4	17.4	78	13.5	0	0	22	0.00	1021.913	0	0.000	0
20080826 21:20	17.2	17.2	17.2	78	13.3	0	0	22	0.00	1021.947	0	0.000	0
20080826 21:25	17.1	17.1	17.1	79	13.4	0	0	22	0.00	1021.981	0	0.000	0
20080826 21:30	16.9	16.9	16.9	80	13.5	0	0	22	0.00	1022.015	0	0.000	0
20080826 21:35	16.8	16.8	16.8	81	13.5	0	0	22	0.00	1022.117	0	0.000	0
20080826 21:40	16.8	16.8	16.8	81	13.5	0	0	22	0.00	1022.218	0	0.000	0
20080826 21:45	16.7	16.7	16.7	81	13.4	0	0	22	0.00	1022.184	0	0.000	0
20080826 21:50	16.6	16.6	16.6	81	13.3	0	0	22	0.00	1022.218	0	0.000	0
20080826 21:55	16.5	16.5	16.5	81	13.2	0	0	22	0.00	1022.218	0	0.000	0
20080826 22:00	16.4	16.4	16.4	81	13.2	0	0	22	0.00	1022.184	0	0.020	0
20080826 22:05	16.4	16.4	16.4	81	13.1	0	0	22	0.00	1022.083	0	0.000	0
20080826 22:10	16.3	16.3	16.3	81	13.1	0	0	22	0.00	1022.015	0	0.000	0
20080826 22:15	16.3	16.3	16.3	81	13.0	0	0	22	0.00	1022.049	0	0.000	0
20080826 22:20	16.2	16.2	16.2	82	13.1	0	0	22	0.00	1022.117	0	0.000	0
20080826 22:25	16.1	16.1	16.1	82	13.0	0	0	22	0.00	1022.150	0	0.000	0
20080826 22:30	15.9	15.9	15.9	83	13.1	0	0	22	0.00	1022.150	0	0.000	0
20080826 22:35	15.8	15.8	15.8	83	12.9	0	0	22	0.00	1022.184	0	0.000	0
20080826 22:40	15.7	15.7	15.7	83	12.8	0	0	22	0.00	1022.387	0	0.000	0
20080826 22:45	15.6	15.6	15.6	84	12.9	0	0	22	0.00	1022.320	0	0.000	0
20080826 22:50	15.5	15.5	15.5	84	12.8	0	0	22	0.00	1022.320	0	0.000	0
20080826 22:55	15.4	15.4	15.4	84	12.7	0	0	22	0.00	1022.286	0	0.000	0
20080826 23:00	15.3	15.3	15.3	85	12.8	0	0	22	0.00	1022.354	0	0.000	0
20080826 23:05	15.1	15.1	15.1	85	12.6	0	0	22	0.00	1022.117	0	0.020	0
20080826 23:10	15.0	15.0	15.0	85	12.5	0	0	22	0.00	1022.150	0	0.000	0
20080826 23:15	15.0	15.0	15.0	86	12.7	0	0	22	0.00	1022.150	0	0.000	0
20080826 23:20	14.9	14.9	14.9	86	12.6	0	0	22	0.00	1022.150	0	0.000	0
20080826 23:25	14.8	14.8	14.8	86	12.5	0	0	22	0.00	1022.150	0	0.000	0
20080826 23:30	14.7	14.7	14.7	86	12.3	0	0	22	0.00	1022.320	0	0.000	0
20080826 23:35	14.6	14.6	14.6	87	12.4	0	0	22	0.00	1022.354	0	0.000	0
20080826 23:40	14.5	14.5	14.5	86	12.2	0	0	22	0.00	1022.320	0	0.000	0
20080826 23:45	14.4	14.4	14.4	86	12.1	0	0	22	0.00	1022.354	0	0.000	0
20080826 23:50	14.3	14.3	14.3	87	12.2	0	0	22	0.00	1022.421	0	0.000	0
20080826 23:55	14.3	14.3	14.3	87	12.1	0	0	22	0.00	1022.421	0	0.000	0
20080826 24:00	14.2	14.2	14.2	87	12.1	0	0	22	0.00	1022.354	0	0.000	0



Please note the license to use and transfer of this data:
http://creativecommons.org/licenses/by-nc-sa/3.0/deed.en

Bitte beachten sie die Lizenz zur Verwertung und Weitergabe der Daten:
http://creativecommons.org/licenses/by-nc-sa/3.0/deed.de

zurück zur Übersicht der Archivdaten (Monats und Tagesdaten)

Cookies helfen bei der Bereitstellung von Inhalten. Durch die Nutzung dieser Seiten erklärst du dich damit einverstanden, dass Cookies auf deinem Rechner gespeichert werden. Weitere Information